createdAt,value
2023-04-16T00:01:36.370Z,97122.16
2023-04-16T00:04:10.505Z,97122.48
2023-04-16T00:06:43.758Z,97122.23
2023-04-16T00:09:16.823Z,97123.38
2023-04-16T00:11:49.551Z,97129.14
2023-04-16T00:14:22.363Z,97127.79
2023-04-16T00:16:55.311Z,97127.63
2023-04-16T00:19:28.352Z,97127.69
2023-04-16T00:22:03.392Z,97128.22
2023-04-16T00:24:36.088Z,97134.18
2023-04-16T00:27:08.898Z,97138.08
2023-04-16T00:29:41.447Z,97136.20
2023-04-16T00:32:14.646Z,97141.79
2023-04-16T00:34:47.372Z,97142.25
2023-04-16T00:37:20.751Z,97143.51
2023-04-16T00:39:53.970Z,97146.09
2023-04-16T00:42:26.698Z,97144.81
2023-04-16T00:44:59.739Z,97153.67
2023-04-16T00:47:33.287Z,97156.24
2023-04-16T00:50:06.786Z,97155.61
2023-04-16T00:52:39.528Z,97155.98
2023-04-16T00:55:13.764Z,97154.66
2023-04-16T00:57:48.910Z,97158.63
2023-04-16T01:00:21.989Z,97157.63
2023-04-16T01:02:55.322Z,97159.52
2023-04-16T01:05:28.062Z,97160.77
2023-04-16T01:08:02.271Z,97164.76
2023-04-16T01:10:34.753Z,97169.23
2023-04-16T01:13:07.343Z,97168.06
2023-04-16T01:15:42.746Z,97167.42
2023-04-16T01:18:19.885Z,97172.05
2023-04-16T01:20:52.812Z,97178.44
2023-04-16T01:23:25.480Z,97180.52
2023-04-16T01:25:59.149Z,97183.66
2023-04-16T01:28:31.686Z,97181.63
2023-04-16T01:31:07.165Z,97179.77
2023-04-16T01:34:17.088Z,97179.48
2023-04-16T01:36:50.432Z,97183.80
2023-04-16T01:39:23.165Z,97185.20
2023-04-16T01:41:56.246Z,97187.96
2023-04-16T01:44:28.678Z,97185.06
2023-04-16T01:47:02.071Z,97190.07
2023-04-16T01:49:35.124Z,97191.83
2023-04-16T01:52:08.912Z,97190.15
2023-04-16T01:54:41.509Z,97188.76
2023-04-16T01:57:14.406Z,97190.17
2023-04-16T01:59:46.871Z,97189.84
2023-04-16T02:02:21.683Z,97191.60
2023-04-16T02:04:55.505Z,97192.46
2023-04-16T02:07:28.284Z,97189.89
2023-04-16T02:10:01.457Z,97188.86
2023-04-16T02:12:32.612Z,97193.95
2023-04-16T02:15:05.480Z,97194.02
2023-04-16T02:17:38.306Z,97194.14
2023-04-16T02:20:16.346Z,97195.52
2023-04-16T02:22:57.089Z,97197.54
2023-04-16T02:25:29.981Z,97200.07
2023-04-16T02:28:03.649Z,97199.33
2023-04-16T02:30:43.566Z,97198.23
2023-04-16T02:33:16.846Z,97197.55
2023-04-16T02:35:59.142Z,97198.72
2023-04-16T02:38:31.671Z,97206.02
2023-04-16T02:41:04.439Z,97206.50
2023-04-16T02:43:37.138Z,97206.93
2023-04-16T02:46:10.136Z,97209.40
2023-04-16T02:48:42.648Z,97207.77
2023-04-16T02:51:15.334Z,97209.22
2023-04-16T02:53:47.856Z,97206.34
2023-04-16T02:56:20.532Z,97210.02
2023-04-16T02:58:53.202Z,97213.19
2023-04-16T03:01:25.915Z,97213.45
2023-04-16T03:03:58.387Z,97216.10
2023-04-16T03:06:31.814Z,97217.56
2023-04-16T03:09:04.297Z,97221.73
2023-04-16T03:11:38.428Z,97225.59
2023-04-16T03:14:12.307Z,97228.09
2023-04-16T03:16:45.054Z,97230.45
2023-04-16T03:19:17.827Z,97229.86
2023-04-16T03:21:50.532Z,97233.07
2023-04-16T03:24:24.081Z,97237.34
2023-04-16T03:26:56.871Z,97241.13
2023-04-16T03:29:29.450Z,97251.20
2023-04-16T03:32:02.559Z,97252.48
2023-04-16T03:34:35.050Z,97253.80
2023-04-16T03:37:09.301Z,97255.85
2023-04-16T03:39:42.009Z,97254.95
2023-04-16T03:42:15.141Z,97255.99
2023-04-16T03:44:47.932Z,97253.38
2023-04-16T03:47:21.303Z,97255.54
2023-04-16T03:49:54.475Z,97253.09
2023-04-16T03:52:27.321Z,97255.65
2023-04-16T03:55:00.531Z,97261.66
2023-04-16T03:57:34.369Z,97267.99
2023-04-16T04:00:12.856Z,97267.32
2023-04-16T04:02:55.303Z,97274.32
2023-04-16T04:05:28.742Z,97284.75
2023-04-16T04:08:01.760Z,97289.21
2023-04-16T04:10:37.353Z,97287.23
2023-04-16T04:13:11.403Z,97285.30
2023-04-16T04:15:44.250Z,97285.29
2023-04-16T04:18:16.690Z,97288.38
2023-04-16T04:20:49.559Z,97290.58
2023-04-16T04:23:26.423Z,97292.77
2023-04-16T04:25:59.873Z,97296.03
2023-04-16T04:28:32.925Z,97297.88
2023-04-16T04:31:05.798Z,97303.00
2023-04-16T04:33:38.543Z,97305.06
2023-04-16T04:36:12.455Z,97309.35
2023-04-16T04:38:45.274Z,97315.83
2023-04-16T04:41:18.189Z,97314.78
2023-04-16T04:43:52.692Z,97310.86
2023-04-16T04:46:25.418Z,97313.94
2023-04-16T04:48:58.129Z,97315.13
2023-04-16T04:51:30.672Z,97317.16
2023-04-16T04:54:03.496Z,97323.98
2023-04-16T04:56:36.104Z,97324.68
2023-04-16T04:59:10.788Z,97321.89
2023-04-16T05:01:43.766Z,97324.71
2023-04-16T05:04:16.512Z,97328.13
2023-04-16T05:06:49.568Z,97329.93
2023-04-16T05:09:22.083Z,97335.91
2023-04-16T05:11:54.817Z,97342.05
2023-04-16T05:14:27.555Z,97342.88
2023-04-16T05:17:00.081Z,97340.42
2023-04-16T05:19:32.818Z,97341.02
2023-04-16T05:22:05.418Z,97339.80
2023-04-16T05:24:38.121Z,97346.94
2023-04-16T05:27:11.013Z,97349.30
2023-04-16T05:29:46.393Z,97355.27
2023-04-16T05:32:19.100Z,97360.98
2023-04-16T05:34:51.801Z,97361.78
2023-04-16T05:37:24.793Z,97359.95
2023-04-16T05:39:58.505Z,97362.11
2023-04-16T05:42:31.131Z,97367.23
2023-04-16T05:45:04.573Z,97371.69
2023-04-16T05:47:37.347Z,97377.44
2023-04-16T05:50:11.562Z,97380.42
2023-04-16T05:52:44.136Z,97380.90
2023-04-16T05:55:16.690Z,97383.90
2023-04-16T05:57:49.833Z,97388.02
2023-04-16T06:00:24.809Z,97390.55
2023-04-16T06:02:57.360Z,97391.19
2023-04-16T06:05:31.267Z,97398.30
2023-04-16T06:08:05.274Z,97397.39
2023-04-16T06:10:38.223Z,97401.91
2023-04-16T06:13:11.251Z,97398.90
2023-04-16T06:15:59.300Z,97399.85
2023-04-16T06:18:32.830Z,97401.56
2023-04-16T06:21:06.020Z,97404.34
2023-04-16T06:23:38.581Z,97403.09
2023-04-16T06:26:11.722Z,97410.30
2023-04-16T06:28:54.054Z,97411.70
2023-04-16T06:31:29.952Z,97414.54
2023-04-16T06:34:02.564Z,97421.98
2023-04-16T06:36:35.055Z,97428.97
2023-04-16T06:39:07.775Z,97428.80
2023-04-16T06:41:40.475Z,97430.00
2023-04-16T06:44:16.613Z,97429.81
2023-04-16T06:46:50.694Z,97432.94
2023-04-16T06:49:23.294Z,97434.80
2023-04-16T06:51:55.990Z,97434.25
2023-04-16T06:54:28.624Z,97431.75
2023-04-16T06:57:01.934Z,97429.63
2023-04-16T06:59:38.363Z,97430.17
2023-04-16T07:02:14.420Z,97433.64
2023-04-16T07:04:47.570Z,97434.83
2023-04-16T07:07:20.215Z,97436.73
2023-04-16T07:09:54.940Z,97441.09
2023-04-16T07:12:28.339Z,97447.92
2023-04-16T07:15:01.648Z,97454.38
2023-04-16T07:17:34.823Z,97454.17
2023-04-16T07:20:11.504Z,97460.67
2023-04-16T07:22:44.317Z,97464.01
2023-04-16T07:25:16.892Z,97471.03
2023-04-16T07:27:50.128Z,97474.32
2023-04-16T07:30:23.399Z,97479.67
2023-04-16T07:32:57.175Z,97477.38
2023-04-16T07:35:29.775Z,97480.91
2023-04-16T07:38:02.699Z,97482.42
2023-04-16T07:40:35.176Z,97484.47
2023-04-16T07:43:08.499Z,97482.59
2023-04-16T07:45:41.651Z,97483.87
2023-04-16T07:48:14.751Z,97485.11
2023-04-16T07:50:47.397Z,97487.64
2023-04-16T07:53:20.166Z,97494.71
2023-04-16T07:55:52.700Z,97494.24
2023-04-16T07:58:25.443Z,97491.88
2023-04-16T08:00:58.660Z,97496.55
2023-04-16T08:03:31.733Z,97499.33
2023-04-16T08:06:04.744Z,97498.53
2023-04-16T08:08:37.614Z,97500.48
2023-04-16T08:11:10.312Z,97505.40
2023-04-16T08:13:44.552Z,97507.88
2023-04-16T08:16:17.305Z,97513.67
2023-04-16T08:18:50.158Z,97513.77
2023-04-16T08:21:23.803Z,97509.98
2023-04-16T08:23:57.005Z,97518.23
2023-04-16T08:26:29.594Z,97518.95
2023-04-16T08:29:02.301Z,97524.30
2023-04-16T08:31:34.919Z,97530.61
2023-04-16T08:34:09.143Z,97536.64
2023-04-16T08:36:42.064Z,97534.77
2023-04-16T08:39:14.765Z,97533.38
2023-04-16T08:41:49.320Z,97531.25
2023-04-16T08:44:27.738Z,97534.09
2023-04-16T08:47:01.532Z,97535.73
2023-04-16T08:49:38.233Z,97541.70
2023-04-16T08:52:15.958Z,97538.48
2023-04-16T08:54:59.085Z,97539.61
2023-04-16T08:57:38.901Z,97540.69
2023-04-16T09:00:15.418Z,97541.23
2023-04-16T09:02:50.613Z,97545.90
2023-04-16T09:05:26.146Z,97550.66
2023-04-16T09:07:59.111Z,97549.31
2023-04-16T09:10:32.056Z,97548.66
2023-04-16T09:13:04.723Z,97554.04
2023-04-16T09:15:37.933Z,97551.60
2023-04-16T09:18:10.663Z,97549.58
2023-04-16T09:20:43.819Z,97552.36
2023-04-16T09:23:16.485Z,97551.79
2023-04-16T09:25:49.201Z,97552.02
2023-04-16T09:28:43.018Z,97553.55
2023-04-16T09:31:15.142Z,97552.29
2023-04-16T09:34:04.769Z,97552.23
2023-04-16T09:36:38.529Z,97551.56
2023-04-16T09:39:20.336Z,97549.17
2023-04-16T09:41:55.213Z,97552.11
2023-04-16T09:44:39.091Z,97550.02
2023-04-16T09:47:13.297Z,97549.70
2023-04-16T09:49:47.252Z,97550.74
2023-04-16T09:52:21.435Z,97548.54
2023-04-16T09:54:55.445Z,97547.86
2023-04-16T09:57:29.194Z,97547.92
2023-04-16T10:00:08.111Z,97550.09
2023-04-16T10:02:47.044Z,97553.10
2023-04-16T10:05:23.853Z,97551.74
2023-04-16T10:08:01.611Z,97554.27
2023-04-16T10:10:34.179Z,97551.32
2023-04-16T10:13:11.039Z,97551.96
2023-04-16T10:15:44.653Z,97555.45
2023-04-16T10:18:18.238Z,97556.77
2023-04-16T10:20:52.904Z,97558.70
2023-04-16T10:23:25.878Z,97555.64
2023-04-16T10:26:00.128Z,97556.74
2023-04-16T10:28:35.882Z,97553.17
2023-04-16T10:31:10.584Z,97560.11
2023-04-16T10:33:47.087Z,97556.73
2023-04-16T10:36:27.233Z,97560.31
2023-04-16T10:39:02.856Z,97553.48
2023-04-16T10:41:36.214Z,97556.08
2023-04-16T10:44:10.031Z,97557.90
2023-04-16T10:46:44.064Z,97556.60
2023-04-16T10:49:30.342Z,97554.62
2023-04-16T10:52:14.563Z,97556.02
2023-04-16T10:54:48.315Z,97554.45
2023-04-16T10:57:21.995Z,97560.19
2023-04-16T10:59:56.844Z,97561.41
2023-04-16T11:02:33.253Z,97558.58
2023-04-16T11:05:07.049Z,97560.46
2023-04-16T11:07:39.795Z,97560.97
2023-04-16T11:10:19.557Z,97563.95
2023-04-16T11:12:52.988Z,97566.14
2023-04-16T11:15:31.251Z,97566.03
2023-04-16T11:18:07.323Z,97566.19
2023-04-16T11:20:47.783Z,97568.34
2023-04-16T11:23:21.042Z,97570.13
2023-04-16T11:25:58.027Z,97570.40
2023-04-16T11:28:41.270Z,97575.48
2023-04-16T11:31:17.255Z,97578.80
2023-04-16T11:33:50.487Z,97577.12
2023-04-16T11:36:27.706Z,97575.23
2023-04-16T11:39:06.628Z,97577.86
2023-04-16T11:41:46.457Z,97582.71
2023-04-16T11:44:24.110Z,97582.29
2023-04-16T11:46:57.289Z,97583.76
2023-04-16T11:49:33.599Z,97585.17
2023-04-16T11:52:06.537Z,97584.95
2023-04-16T11:54:41.989Z,97587.50
2023-04-16T11:57:15.599Z,97586.26
2023-04-16T12:00:02.165Z,97585.21
2023-04-16T12:02:53.752Z,97586.96
2023-04-16T12:05:35.241Z,97586.20
2023-04-16T12:08:09.790Z,97587.08
2023-04-16T12:10:56.963Z,97585.88
2023-04-16T12:13:29.574Z,97586.00
2023-04-16T12:16:02.504Z,97585.02
2023-04-16T12:18:35.396Z,97586.67
2023-04-16T12:21:09.864Z,97583.73
2023-04-16T12:23:42.934Z,97582.88
2023-04-16T12:26:15.541Z,97579.55
2023-04-16T12:28:48.448Z,97578.55
2023-04-16T12:31:38.354Z,97579.89
2023-04-16T12:34:12.502Z,97577.55
2023-04-16T12:36:45.164Z,97575.23
2023-04-16T12:39:18.872Z,97577.14
2023-04-16T12:41:51.612Z,97575.16
2023-04-16T12:44:24.588Z,97573.48
2023-04-16T12:46:57.732Z,97570.32
2023-04-16T12:49:31.371Z,97575.14
2023-04-16T12:52:04.374Z,97573.42
2023-04-16T12:54:37.844Z,97572.64
2023-04-16T12:57:10.849Z,97571.48
2023-04-16T12:59:49.356Z,97569.96
2023-04-16T13:02:22.002Z,97572.67
2023-04-16T13:04:56.078Z,97567.70
2023-04-16T13:07:28.634Z,97567.31
2023-04-16T13:10:01.558Z,97567.04
2023-04-16T13:12:35.212Z,97563.99
2023-04-16T13:15:09.833Z,97560.31
2023-04-16T13:17:44.125Z,97563.91
2023-04-16T13:20:18.546Z,97563.65
2023-04-16T13:22:55.983Z,97566.13
2023-04-16T13:25:30.759Z,97564.70
2023-04-16T13:28:08.212Z,97565.17
2023-04-16T13:30:41.963Z,97563.66
2023-04-16T13:33:15.366Z,97564.02
2023-04-16T13:35:48.813Z,97562.70
2023-04-16T13:38:23.727Z,97566.37
2023-04-16T13:40:56.840Z,97562.39
2023-04-16T13:43:29.580Z,97563.16
2023-04-16T13:46:05.238Z,97563.07
2023-04-16T13:48:39.570Z,97560.99
2023-04-16T13:51:12.407Z,97564.56
2023-04-16T13:53:48.250Z,97561.35
2023-04-16T13:56:21.459Z,97563.82
2023-04-16T13:58:54.489Z,97561.35
2023-04-16T14:01:27.291Z,97560.40
2023-04-16T14:04:02.359Z,97557.41
2023-04-16T14:06:35.951Z,97560.48
2023-04-16T14:09:06.508Z,97560.41
2023-04-16T14:11:39.743Z,97557.01
2023-04-16T14:14:12.951Z,97554.02
2023-04-16T14:16:49.014Z,97553.71
2023-04-16T14:19:21.779Z,97557.61
2023-04-16T14:21:54.649Z,97555.83
2023-04-16T14:24:27.146Z,97557.40
2023-04-16T14:26:59.772Z,97555.51
2023-04-16T14:29:32.720Z,97553.98
2023-04-16T14:32:05.590Z,97555.61
2023-04-16T14:34:38.516Z,97553.08
2023-04-16T14:37:11.919Z,97554.73
2023-04-16T14:39:44.961Z,97557.27
2023-04-16T14:42:20.081Z,97557.86
2023-04-16T14:44:52.934Z,97555.80
2023-04-16T14:47:28.320Z,97557.29
2023-04-16T14:50:01.076Z,97557.45
2023-04-16T14:52:35.506Z,97558.30
2023-04-16T14:55:09.000Z,97558.80
2023-04-16T14:57:42.383Z,97553.60
2023-04-16T15:00:17.579Z,97554.28
2023-04-16T15:02:50.509Z,97557.18
2023-04-16T15:05:23.594Z,97563.52
2023-04-16T15:07:56.176Z,97565.61
2023-04-16T15:10:28.787Z,97563.39
2023-04-16T15:13:01.455Z,97567.00
2023-04-16T15:15:34.692Z,97564.14
2023-04-16T15:18:09.073Z,97562.02
2023-04-16T15:20:41.791Z,97562.63
2023-04-16T15:23:15.042Z,97562.05
2023-04-16T15:25:47.749Z,97562.80
2023-04-16T15:28:19.709Z,97561.73
2023-04-16T15:30:53.876Z,97566.34
2023-04-16T15:33:27.005Z,97570.09
2023-04-16T15:35:59.733Z,97569.02
2023-04-16T15:38:32.600Z,97570.04
2023-04-16T15:41:05.623Z,97565.89
2023-04-16T15:43:36.798Z,97564.78
2023-04-16T15:46:09.489Z,97564.14
2023-04-16T15:48:42.411Z,97564.34
2023-04-16T15:51:15.404Z,97563.88
2023-04-16T15:54:03.411Z,97564.04
2023-04-16T15:56:40.122Z,97567.48
2023-04-16T15:59:13.266Z,97569.39
2023-04-16T16:01:46.403Z,97572.81
2023-04-16T16:04:17.443Z,97573.59
2023-04-16T16:06:50.323Z,97574.31
2023-04-16T16:09:26.624Z,97577.34
2023-04-16T16:12:00.226Z,97575.52
2023-04-16T16:14:31.284Z,97579.64
2023-04-16T16:17:05.576Z,97581.23
2023-04-16T16:19:39.988Z,97581.88
2023-04-16T16:22:13.546Z,97579.89
2023-04-16T16:24:46.543Z,97580.02
2023-04-16T16:27:19.110Z,97584.88
2023-04-16T16:29:51.837Z,97589.33
2023-04-16T16:32:25.914Z,97591.00
2023-04-16T16:35:00.159Z,97591.60
2023-04-16T16:37:33.907Z,97593.52
2023-04-16T16:40:08.007Z,97597.86
2023-04-16T16:42:41.442Z,97596.73
2023-04-16T16:45:15.231Z,97597.52
2023-04-16T16:47:50.352Z,97596.27
2023-04-16T16:50:24.466Z,97598.84
2023-04-16T16:52:57.082Z,97598.67
2023-04-16T16:55:30.482Z,97601.20
2023-04-16T16:58:03.345Z,97603.10
2023-04-16T17:00:38.817Z,97608.94
2023-04-16T17:03:14.464Z,97611.63
2023-04-16T17:05:47.623Z,97613.77
2023-04-16T17:08:22.064Z,97614.36
2023-04-16T17:10:55.955Z,97614.88
2023-04-16T17:13:30.563Z,97614.31
2023-04-16T17:16:04.092Z,97617.46
2023-04-16T17:18:34.685Z,97618.83
2023-04-16T17:21:08.166Z,97621.62
2023-04-16T17:23:41.014Z,97622.23
2023-04-16T17:26:14.239Z,97626.62
2023-04-16T17:28:48.506Z,97622.52
2023-04-16T17:31:22.075Z,97629.02
2023-04-16T17:33:54.876Z,97631.05
2023-04-16T17:36:27.909Z,97635.35
2023-04-16T17:39:00.849Z,97632.35
2023-04-16T17:41:32.115Z,97635.77
2023-04-16T17:44:09.819Z,97633.33
2023-04-16T17:46:44.936Z,97636.79
2023-04-16T17:49:18.023Z,97636.35
2023-04-16T17:51:52.312Z,97636.21
2023-04-16T17:54:25.370Z,97633.34
2023-04-16T17:56:57.907Z,97640.55
2023-04-16T17:59:30.424Z,97642.64
2023-04-16T18:02:03.821Z,97643.98
2023-04-16T18:04:42.807Z,97645.30
2023-04-16T18:07:16.998Z,97641.49
2023-04-16T18:09:50.625Z,97640.27
2023-04-16T18:12:24.213Z,97639.27
2023-04-16T18:14:54.796Z,97647.02
2023-04-16T18:17:28.210Z,97651.84
2023-04-16T18:19:59.664Z,97650.55
2023-04-16T18:22:36.074Z,97653.44
2023-04-16T18:25:13.786Z,97660.33
2023-04-16T18:27:46.555Z,97663.89
2023-04-16T18:30:25.442Z,97667.70
2023-04-16T18:33:44.496Z,97668.30
2023-04-16T18:36:15.001Z,97667.23
2023-04-16T18:38:59.965Z,97671.74
2023-04-16T18:41:36.851Z,97667.59
2023-04-16T18:44:29.514Z,97670.40
2023-04-16T18:47:02.510Z,97671.98
2023-04-16T18:49:36.459Z,97674.74
2023-04-16T18:52:09.409Z,97673.77
2023-04-16T18:54:44.620Z,97672.73
2023-04-16T18:57:24.929Z,97671.89
2023-04-16T18:59:57.771Z,97676.85
2023-04-16T19:02:31.837Z,97678.50
2023-04-16T19:05:04.968Z,97677.02
2023-04-16T19:07:38.070Z,97679.21
2023-04-16T19:10:12.872Z,97677.44
2023-04-16T19:12:46.727Z,97679.63
2023-04-16T19:15:21.912Z,97679.70
2023-04-16T19:17:54.770Z,97681.59
2023-04-16T19:20:29.110Z,97678.61
2023-04-16T19:23:03.532Z,97682.02
2023-04-16T19:25:40.254Z,97683.76
2023-04-16T19:28:14.800Z,97684.10
2023-04-16T19:30:51.528Z,97682.61
2023-04-16T19:33:25.088Z,97681.20
2023-04-16T19:35:58.215Z,97679.83
2023-04-16T19:38:34.143Z,97678.81
2023-04-16T19:41:07.263Z,97678.95
2023-04-16T19:43:39.889Z,97678.73
2023-04-16T19:46:12.865Z,97676.85
2023-04-16T19:48:45.435Z,97680.05
2023-04-16T19:51:18.577Z,97677.52
2023-04-16T19:53:55.658Z,97674.82
2023-04-16T19:56:29.653Z,97676.30
2023-04-16T19:59:02.821Z,97676.17
2023-04-16T20:01:36.900Z,97677.13
2023-04-16T20:04:09.504Z,97677.05
2023-04-16T20:06:42.513Z,97675.44
2023-04-16T20:09:15.082Z,97676.46
2023-04-16T20:11:48.652Z,97677.22
2023-04-16T20:14:19.421Z,97678.16
2023-04-16T20:16:52.620Z,97677.94
2023-04-16T20:19:26.450Z,97676.54
2023-04-16T20:21:59.201Z,97677.73
2023-04-16T20:24:32.041Z,97671.13
2023-04-16T20:27:04.876Z,97673.09
2023-04-16T20:29:37.490Z,97673.99
2023-04-16T20:32:10.879Z,97676.65
2023-04-16T20:34:43.838Z,97675.39
2023-04-16T20:37:17.131Z,97675.70
2023-04-16T20:39:50.504Z,97676.90
2023-04-16T20:42:35.398Z,97675.45
2023-04-16T20:45:09.331Z,97673.81
2023-04-16T20:47:44.031Z,97672.05
2023-04-16T20:50:16.950Z,97672.14
2023-04-16T20:52:50.481Z,97673.45
2023-04-16T20:55:24.675Z,97672.27
2023-04-16T20:57:58.247Z,97671.02
2023-04-16T21:00:30.769Z,97669.13
2023-04-16T21:03:03.936Z,97663.91
2023-04-16T21:05:37.478Z,97665.80
2023-04-16T21:08:11.827Z,97664.73
2023-04-16T21:10:46.525Z,97664.48
2023-04-16T21:13:22.263Z,97663.41
2023-04-16T21:15:55.066Z,97663.05
2023-04-16T21:18:29.352Z,97663.76
2023-04-16T21:21:01.993Z,97664.89
2023-04-16T21:23:35.220Z,97664.40
2023-04-16T21:26:07.844Z,97666.29
2023-04-16T21:28:48.598Z,97666.19
2023-04-16T21:31:22.908Z,97665.06
2023-04-16T21:33:57.239Z,97663.37
2023-04-16T21:36:32.409Z,97659.63
2023-04-16T21:39:05.333Z,97657.19
2023-04-16T21:41:38.544Z,97655.56
2023-04-16T21:44:11.322Z,97654.16
2023-04-16T21:46:46.987Z,97652.66
2023-04-16T21:49:19.921Z,97658.41
2023-04-16T21:51:59.479Z,97658.86
2023-04-16T21:54:32.033Z,97656.17
2023-04-16T21:57:05.040Z,97658.17
2023-04-16T21:59:37.954Z,97661.71
2023-04-16T22:02:10.877Z,97659.66
2023-04-16T22:04:44.081Z,97661.23
2023-04-16T22:07:17.227Z,97663.55
2023-04-16T22:09:50.027Z,97664.42
2023-04-16T22:12:23.095Z,97664.09
2023-04-16T22:15:02.479Z,97664.08
2023-04-16T22:17:36.403Z,97663.27
2023-04-16T22:20:13.563Z,97660.72
2023-04-16T22:22:46.946Z,97664.66
2023-04-16T22:25:19.526Z,97660.25
2023-04-16T22:27:52.345Z,97661.65
2023-04-16T22:30:25.975Z,97660.63
2023-04-16T22:32:58.602Z,97660.52
2023-04-16T22:35:31.552Z,97662.89
2023-04-16T22:38:04.129Z,97667.00
2023-04-16T22:40:36.811Z,97665.27
2023-04-16T22:43:09.462Z,97665.25
2023-04-16T22:45:43.413Z,97665.83
2023-04-16T22:48:16.070Z,97666.20
2023-04-16T22:50:51.536Z,97667.83
2023-04-16T22:53:24.211Z,97673.22
2023-04-16T22:55:57.232Z,97669.76
2023-04-16T22:58:29.834Z,97666.86
2023-04-16T23:01:02.795Z,97664.45
2023-04-16T23:03:36.503Z,97664.35
2023-04-16T23:06:10.055Z,97666.96
2023-04-16T23:08:42.665Z,97663.05
2023-04-16T23:11:15.453Z,97664.73
2023-04-16T23:13:48.326Z,97668.83
2023-04-16T23:16:21.194Z,97664.27
2023-04-16T23:18:55.205Z,97659.81
2023-04-16T23:21:29.273Z,97660.02
2023-04-16T23:24:02.383Z,97662.23
2023-04-16T23:26:36.540Z,97659.61
2023-04-16T23:29:10.001Z,97658.20
2023-04-16T23:31:43.053Z,97657.02
2023-04-16T23:34:16.063Z,97660.66
2023-04-16T23:36:48.752Z,97656.31
2023-04-16T23:39:23.217Z,97652.02
2023-04-16T23:41:55.884Z,97652.38
2023-04-16T23:44:28.610Z,97652.55
2023-04-16T23:47:02.965Z,97649.66
2023-04-16T23:49:35.966Z,97653.31
2023-04-16T23:52:09.142Z,97654.38
2023-04-16T23:54:41.780Z,97656.69
2023-04-16T23:57:15.492Z,97654.14
2023-04-16T23:59:48.076Z,97654.12
